Terminal Aerodrome Forecast
Issued by NWS

Home | Current Version | Previous Version | Text Only | Print | Product List | Glossary On
Versions: 1 2 3 4 5 6 7 8 9 10 11 12 13 14 15 16 17 18 19 20 21 22 23 24 25 26
466
FTUS43 KAPX 181948 AAA
TAFPLN
TAF AMD
KPLN 181948Z 1820/1918 20010G15KT P6SM BKN010
     FM182200 23010G15KT P6SM SCT010
     FM190300 25008KT P6SM BKN003
     FM190400 25008KT 3SM BR BKN003
     FM190900 24004KT 1SM BR BKN003
     FM191600 21004KT 2SM BR SCT003=

USA.gov is the U.S. government's official web portal to all federal, state and local government web resources and services.